sensor_id;sensor_type;location;lat;lon;timestamp;P1;durP1;ratioP1;P2;durP2;ratioP2
18023;SDS011;9137;50.960;3.118;2022-08-14T00:01:20;3.50;;;3.20;;
18023;SDS011;9137;50.960;3.118;2022-08-14T00:03:47;3.22;;;3.03;;
18023;SDS011;9137;50.960;3.118;2022-08-14T00:06:15;4.25;;;3.85;;
18023;SDS011;9137;50.960;3.118;2022-08-14T00:08:42;5.20;;;3.80;;
18023;SDS011;9137;50.960;3.118;2022-08-14T00:11:10;4.00;;;3.70;;
18023;SDS011;9137;50.960;3.118;2022-08-14T00:13:38;5.43;;;3.42;;
18023;SDS011;9137;50.960;3.118;2022-08-14T00:16:05;4.40;;;3.80;;
18023;SDS011;9137;50.960;3.118;2022-08-14T00:18:32;3.83;;;3.42;;
18023;SDS011;9137;50.960;3.118;2022-08-14T00:20:59;4.90;;;3.60;;
18023;SDS011;9137;50.960;3.118;2022-08-14T00:23:26;4.20;;;3.90;;
18023;SDS011;9137;50.960;3.118;2022-08-14T00:25:53;4.10;;;3.30;;
18023;SDS011;9137;50.960;3.118;2022-08-14T00:28:23;4.72;;;3.15;;
18023;SDS011;9137;50.960;3.118;2022-08-14T00:30:52;3.80;;;3.47;;
18023;SDS011;9137;50.960;3.118;2022-08-14T00:33:21;4.37;;;3.97;;
18023;SDS011;9137;50.960;3.118;2022-08-14T00:35:49;4.93;;;3.50;;
18023;SDS011;9137;50.960;3.118;2022-08-14T00:38:17;3.90;;;3.60;;
18023;SDS011;9137;50.960;3.118;2022-08-14T00:40:44;3.95;;;3.55;;
18023;SDS011;9137;50.960;3.118;2022-08-14T00:43:12;4.57;;;4.07;;
18023;SDS011;9137;50.960;3.118;2022-08-14T00:45:41;4.28;;;3.80;;
18023;SDS011;9137;50.960;3.118;2022-08-14T00:48:08;3.80;;;3.50;;
18023;SDS011;9137;50.960;3.118;2022-08-14T00:50:36;4.47;;;4.07;;
18023;SDS011;9137;50.960;3.118;2022-08-14T00:53:03;3.97;;;3.53;;
18023;SDS011;9137;50.960;3.118;2022-08-14T00:55:31;4.57;;;4.07;;
18023;SDS011;9137;50.960;3.118;2022-08-14T00:58:01;4.60;;;4.20;;
18023;SDS011;9137;50.960;3.118;2022-08-14T01:00:48;5.00;;;4.50;;
18023;SDS011;9137;50.960;3.118;2022-08-14T01:03:15;5.32;;;4.13;;
18023;SDS011;9137;50.960;3.118;2022-08-14T01:05:43;5.05;;;4.65;;
18023;SDS011;9137;50.960;3.118;2022-08-14T01:08:14;5.67;;;5.17;;
18023;SDS011;9137;50.960;3.118;2022-08-14T01:10:43;4.97;;;4.57;;
18023;SDS011;9137;50.960;3.118;2022-08-14T01:13:18;5.43;;;4.90;;
18023;SDS011;9137;50.960;3.118;2022-08-14T01:15:48;5.60;;;5.00;;
18023;SDS011;9137;50.960;3.118;2022-08-14T01:18:17;5.40;;;5.00;;
18023;SDS011;9137;50.960;3.118;2022-08-14T01:21:03;4.97;;;4.63;;
18023;SDS011;9137;50.960;3.118;2022-08-14T01:23:41;5.30;;;4.90;;
18023;SDS011;9137;50.960;3.118;2022-08-14T01:26:09;4.80;;;4.40;;
18023;SDS011;9137;50.960;3.118;2022-08-14T01:28:38;5.38;;;4.93;;
18023;SDS011;9137;50.960;3.118;2022-08-14T01:31:06;5.80;;;5.30;;
18023;SDS011;9137;50.960;3.118;2022-08-14T01:33:36;6.22;;;5.72;;
18023;SDS011;9137;50.960;3.118;2022-08-14T01:36:05;5.80;;;5.30;;
18023;SDS011;9137;50.960;3.118;2022-08-14T01:38:33;6.40;;;5.80;;
18023;SDS011;9137;50.960;3.118;2022-08-14T01:41:02;6.15;;;5.57;;
18023;SDS011;9137;50.960;3.118;2022-08-14T01:43:32;6.60;;;5.95;;
18023;SDS011;9137;50.960;3.118;2022-08-14T01:46:08;7.40;;;6.07;;
18023;SDS011;9137;50.960;3.118;2022-08-14T01:48:36;6.35;;;5.85;;
18023;SDS011;9137;50.960;3.118;2022-08-14T01:51:08;7.18;;;6.57;;
18023;SDS011;9137;50.960;3.118;2022-08-14T01:53:36;6.50;;;5.90;;
18023;SDS011;9137;50.960;3.118;2022-08-14T01:56:06;6.95;;;6.35;;
18023;SDS011;9137;50.960;3.118;2022-08-14T01:58:33;7.13;;;6.40;;
18023;SDS011;9137;50.960;3.118;2022-08-14T02:01:00;6.95;;;6.35;;
18023;SDS011;9137;50.960;3.118;2022-08-14T02:03:29;7.83;;;6.77;;
18023;SDS011;9137;50.960;3.118;2022-08-14T02:05:59;7.80;;;7.20;;
18023;SDS011;9137;50.960;3.118;2022-08-14T02:08:28;8.05;;;7.03;;
18023;SDS011;9137;50.960;3.118;2022-08-14T02:10:56;8.27;;;7.20;;
18023;SDS011;9137;50.960;3.118;2022-08-14T02:13:44;7.80;;;7.00;;
18023;SDS011;9137;50.960;3.118;2022-08-14T02:16:15;7.55;;;6.85;;
18023;SDS011;9137;50.960;3.118;2022-08-14T02:18:43;7.45;;;6.80;;
18023;SDS011;9137;50.960;3.118;2022-08-14T02:21:10;7.53;;;6.83;;
18023;SDS011;9137;50.960;3.118;2022-08-14T02:23:38;7.82;;;7.13;;
18023;SDS011;9137;50.960;3.118;2022-08-14T02:26:13;7.40;;;6.75;;
18023;SDS011;9137;50.960;3.118;2022-08-14T02:28:42;6.72;;;6.20;;
18023;SDS011;9137;50.960;3.118;2022-08-14T02:31:11;8.20;;;7.40;;
18023;SDS011;9137;50.960;3.118;2022-08-14T02:33:39;7.90;;;7.30;;
18023;SDS011;9137;50.960;3.118;2022-08-14T02:36:07;7.88;;;7.13;;
18023;SDS011;9137;50.960;3.118;2022-08-14T02:38:35;7.90;;;7.20;;
18023;SDS011;9137;50.960;3.118;2022-08-14T02:41:06;7.65;;;6.95;;
18023;SDS011;9137;50.960;3.118;2022-08-14T02:43:35;8.02;;;7.40;;
18023;SDS011;9137;50.960;3.118;2022-08-14T02:46:04;7.88;;;7.10;;
18023;SDS011;9137;50.960;3.118;2022-08-14T02:48:34;7.93;;;7.32;;
18023;SDS011;9137;50.960;3.118;2022-08-14T02:51:04;8.18;;;7.28;;
18023;SDS011;9137;50.960;3.118;2022-08-14T02:53:33;11.05;;;8.13;;
18023;SDS011;9137;50.960;3.118;2022-08-14T02:56:00;8.48;;;7.72;;
18023;SDS011;9137;50.960;3.118;2022-08-14T02:58:28;8.75;;;7.95;;
18023;SDS011;9137;50.960;3.118;2022-08-14T03:00:56;9.10;;;8.30;;
18023;SDS011;9137;50.960;3.118;2022-08-14T03:03:25;8.75;;;7.95;;
18023;SDS011;9137;50.960;3.118;2022-08-14T03:05:51;8.60;;;7.95;;
18023;SDS011;9137;50.960;3.118;2022-08-14T03:08:19;8.55;;;7.90;;
18023;SDS011;9137;50.960;3.118;2022-08-14T03:10:46;8.90;;;8.20;;
18023;SDS011;9137;50.960;3.118;2022-08-14T03:13:14;9.45;;;8.63;;
18023;SDS011;9137;50.960;3.118;2022-08-14T03:15:41;9.48;;;8.68;;
18023;SDS011;9137;50.960;3.118;2022-08-14T03:18:11;9.80;;;8.90;;
18023;SDS011;9137;50.960;3.118;2022-08-14T03:20:40;9.43;;;8.60;;
18023;SDS011;9137;50.960;3.118;2022-08-14T03:23:07;8.75;;;8.00;;
18023;SDS011;9137;50.960;3.118;2022-08-14T03:25:34;9.82;;;8.82;;
18023;SDS011;9137;50.960;3.118;2022-08-14T03:28:02;9.77;;;8.97;;
18023;SDS011;9137;50.960;3.118;2022-08-14T03:30:31;9.52;;;8.73;;
18023;SDS011;9137;50.960;3.118;2022-08-14T03:32:58;8.95;;;8.25;;
18023;SDS011;9137;50.960;3.118;2022-08-14T03:35:25;9.38;;;8.63;;
18023;SDS011;9137;50.960;3.118;2022-08-14T03:37:55;9.67;;;8.87;;
18023;SDS011;9137;50.960;3.118;2022-08-14T03:40:29;10.00;;;9.20;;
18023;SDS011;9137;50.960;3.118;2022-08-14T03:42:56;9.02;;;8.20;;
18023;SDS011;9137;50.960;3.118;2022-08-14T03:45:25;9.55;;;8.75;;
18023;SDS011;9137;50.960;3.118;2022-08-14T03:47:52;9.50;;;8.70;;
18023;SDS011;9137;50.960;3.118;2022-08-14T03:50:19;9.77;;;8.98;;
18023;SDS011;9137;50.960;3.118;2022-08-14T03:52:46;9.93;;;9.05;;
18023;SDS011;9137;50.960;3.118;2022-08-14T03:55:15;9.93;;;8.82;;
18023;SDS011;9137;50.960;3.118;2022-08-14T03:57:42;10.35;;;9.48;;
18023;SDS011;9137;50.960;3.118;2022-08-14T04:00:11;9.45;;;8.65;;
18023;SDS011;9137;50.960;3.118;2022-08-14T04:02:39;11.15;;;9.93;;
18023;SDS011;9137;50.960;3.118;2022-08-14T04:05:07;10.13;;;9.25;;
18023;SDS011;9137;50.960;3.118;2022-08-14T04:07:35;10.20;;;9.27;;
18023;SDS011;9137;50.960;3.118;2022-08-14T04:10:03;10.32;;;9.35;;
18023;SDS011;9137;50.960;3.118;2022-08-14T04:12:32;9.95;;;9.07;;
18023;SDS011;9137;50.960;3.118;2022-08-14T04:15:00;11.10;;;10.02;;
18023;SDS011;9137;50.960;3.118;2022-08-14T04:17:27;10.88;;;9.98;;
18023;SDS011;9137;50.960;3.118;2022-08-14T04:19:54;10.02;;;9.00;;
18023;SDS011;9137;50.960;3.118;2022-08-14T04:22:23;10.75;;;9.75;;
18023;SDS011;9137;50.960;3.118;2022-08-14T04:24:50;10.32;;;9.52;;
18023;SDS011;9137;50.960;3.118;2022-08-14T04:27:18;10.75;;;9.77;;
18023;SDS011;9137;50.960;3.118;2022-08-14T04:29:46;12.75;;;9.60;;
18023;SDS011;9137;50.960;3.118;2022-08-14T04:32:13;11.48;;;10.48;;
18023;SDS011;9137;50.960;3.118;2022-08-14T04:34:41;10.70;;;9.70;;
18023;SDS011;9137;50.960;3.118;2022-08-14T04:37:08;11.30;;;10.17;;
18023;SDS011;9137;50.960;3.118;2022-08-14T04:39:53;10.80;;;9.82;;
18023;SDS011;9137;50.960;3.118;2022-08-14T04:42:38;10.82;;;9.75;;
18023;SDS011;9137;50.960;3.118;2022-08-14T04:45:25;10.60;;;9.70;;
18023;SDS011;9137;50.960;3.118;2022-08-14T04:47:56;10.75;;;9.85;;
18023;SDS011;9137;50.960;3.118;2022-08-14T04:50:39;11.10;;;10.07;;
18023;SDS011;9137;50.960;3.118;2022-08-14T04:53:09;11.65;;;10.48;;
18023;SDS011;9137;50.960;3.118;2022-08-14T04:55:37;11.65;;;10.57;;
18023;SDS011;9137;50.960;3.118;2022-08-14T04:58:05;11.38;;;10.30;;
18023;SDS011;9137;50.960;3.118;2022-08-14T05:00:34;10.40;;;9.40;;
18023;SDS011;9137;50.960;3.118;2022-08-14T05:03:04;10.65;;;9.85;;
18023;SDS011;9137;50.960;3.118;2022-08-14T05:05:31;11.43;;;10.38;;
18023;SDS011;9137;50.960;3.118;2022-08-14T05:08:05;10.43;;;9.52;;
18023;SDS011;9137;50.960;3.118;2022-08-14T05:10:36;10.70;;;9.70;;
18023;SDS011;9137;50.960;3.118;2022-08-14T05:13:05;10.23;;;9.23;;
18023;SDS011;9137;50.960;3.118;2022-08-14T05:15:32;11.43;;;10.50;;
18023;SDS011;9137;50.960;3.118;2022-08-14T05:18:02;10.40;;;9.57;;
18023;SDS011;9137;50.960;3.118;2022-08-14T05:20:36;11.70;;;10.50;;
18023;SDS011;9137;50.960;3.118;2022-08-14T05:23:05;10.57;;;9.63;;
18023;SDS011;9137;50.960;3.118;2022-08-14T05:25:33;9.98;;;9.18;;
18023;SDS011;9137;50.960;3.118;2022-08-14T05:28:07;10.45;;;9.55;;
18023;SDS011;9137;50.960;3.118;2022-08-14T05:30:37;10.27;;;9.48;;
18023;SDS011;9137;50.960;3.118;2022-08-14T05:33:08;10.27;;;9.27;;
18023;SDS011;9137;50.960;3.118;2022-08-14T05:35:36;11.00;;;9.90;;
18023;SDS011;9137;50.960;3.118;2022-08-14T05:38:06;10.88;;;9.95;;
18023;SDS011;9137;50.960;3.118;2022-08-14T05:40:33;10.80;;;9.70;;
18023;SDS011;9137;50.960;3.118;2022-08-14T05:43:00;10.85;;;9.80;;
18023;SDS011;9137;50.960;3.118;2022-08-14T05:45:27;10.00;;;9.10;;
18023;SDS011;9137;50.960;3.118;2022-08-14T05:47:56;10.30;;;9.40;;
18023;SDS011;9137;50.960;3.118;2022-08-14T05:50:23;11.55;;;9.48;;
18023;SDS011;9137;50.960;3.118;2022-08-14T05:52:51;10.40;;;9.40;;
18023;SDS011;9137;50.960;3.118;2022-08-14T05:55:19;10.40;;;9.40;;
18023;SDS011;9137;50.960;3.118;2022-08-14T05:57:48;9.93;;;9.02;;
18023;SDS011;9137;50.960;3.118;2022-08-14T06:00:17;9.77;;;8.98;;
18023;SDS011;9137;50.960;3.118;2022-08-14T06:02:45;10.93;;;9.88;;
18023;SDS011;9137;50.960;3.118;2022-08-14T06:05:13;10.63;;;7.85;;
18023;SDS011;9137;50.960;3.118;2022-08-14T06:07:40;9.57;;;8.68;;
18023;SDS011;9137;50.960;3.118;2022-08-14T06:10:08;9.40;;;8.60;;
18023;SDS011;9137;50.960;3.118;2022-08-14T06:12:36;11.45;;;7.97;;
18023;SDS011;9137;50.960;3.118;2022-08-14T06:15:04;8.80;;;8.00;;
18023;SDS011;9137;50.960;3.118;2022-08-14T06:17:34;9.00;;;8.10;;
18023;SDS011;9137;50.960;3.118;2022-08-14T06:20:09;8.68;;;7.88;;
18023;SDS011;9137;50.960;3.118;2022-08-14T06:22:38;7.70;;;7.00;;
18023;SDS011;9137;50.960;3.118;2022-08-14T06:25:06;7.80;;;7.03;;
18023;SDS011;9137;50.960;3.118;2022-08-14T06:27:36;7.10;;;6.60;;
18023;SDS011;9137;50.960;3.118;2022-08-14T06:30:04;7.35;;;6.70;;
18023;SDS011;9137;50.960;3.118;2022-08-14T06:32:32;6.88;;;6.28;;
18023;SDS011;9137;50.960;3.118;2022-08-14T06:34:59;5.75;;;5.35;;
18023;SDS011;9137;50.960;3.118;2022-08-14T06:37:26;5.57;;;5.07;;
18023;SDS011;9137;50.960;3.118;2022-08-14T06:39:54;4.28;;;3.97;;
18023;SDS011;9137;50.960;3.118;2022-08-14T06:42:21;4.95;;;4.45;;
18023;SDS011;9137;50.960;3.118;2022-08-14T06:44:48;5.38;;;4.43;;
18023;SDS011;9137;50.960;3.118;2022-08-14T06:47:15;6.20;;;5.18;;
18023;SDS011;9137;50.960;3.118;2022-08-14T06:49:42;8.70;;;6.17;;
18023;SDS011;9137;50.960;3.118;2022-08-14T06:52:09;6.70;;;6.15;;
18023;SDS011;9137;50.960;3.118;2022-08-14T06:54:36;7.25;;;5.60;;
18023;SDS011;9137;50.960;3.118;2022-08-14T06:57:05;6.63;;;6.03;;
18023;SDS011;9137;50.960;3.118;2022-08-14T06:59:32;9.82;;;7.32;;
18023;SDS011;9137;50.960;3.118;2022-08-14T07:01:59;7.90;;;7.10;;
18023;SDS011;9137;50.960;3.118;2022-08-14T07:04:44;8.30;;;7.50;;
18023;SDS011;9137;50.960;3.118;2022-08-14T07:07:34;11.75;;;7.28;;
18023;SDS011;9137;50.960;3.118;2022-08-14T07:10:02;8.90;;;6.85;;
18023;SDS011;9137;50.960;3.118;2022-08-14T07:12:31;8.27;;;7.47;;
18023;SDS011;9137;50.960;3.118;2022-08-14T07:14:58;8.10;;;7.30;;
18023;SDS011;9137;50.960;3.118;2022-08-14T07:17:25;7.63;;;6.93;;
18023;SDS011;9137;50.960;3.118;2022-08-14T07:19:52;8.13;;;6.57;;
18023;SDS011;9137;50.960;3.118;2022-08-14T07:22:19;7.35;;;6.55;;
18023;SDS011;9137;50.960;3.118;2022-08-14T07:24:46;6.35;;;5.75;;
18023;SDS011;9137;50.960;3.118;2022-08-14T07:27:13;8.40;;;6.20;;
18023;SDS011;9137;50.960;3.118;2022-08-14T07:29:42;6.05;;;5.45;;
18023;SDS011;9137;50.960;3.118;2022-08-14T07:32:09;5.82;;;5.22;;
18023;SDS011;9137;50.960;3.118;2022-08-14T07:34:36;6.18;;;5.03;;
18023;SDS011;9137;50.960;3.118;2022-08-14T07:37:03;5.47;;;4.97;;
18023;SDS011;9137;50.960;3.118;2022-08-14T07:39:30;5.88;;;4.95;;
18023;SDS011;9137;50.960;3.118;2022-08-14T07:41:57;6.93;;;4.47;;
18023;SDS011;9137;50.960;3.118;2022-08-14T07:44:24;4.18;;;3.78;;
18023;SDS011;9137;50.960;3.118;2022-08-14T07:46:53;6.10;;;4.73;;
18023;SDS011;9137;50.960;3.118;2022-08-14T07:49:20;4.72;;;4.28;;
18023;SDS011;9137;50.960;3.118;2022-08-14T07:51:48;5.10;;;4.70;;
18023;SDS011;9137;50.960;3.118;2022-08-14T07:54:15;5.63;;;4.90;;
18023;SDS011;9137;50.960;3.118;2022-08-14T07:56:42;4.78;;;4.20;;
18023;SDS011;9137;50.960;3.118;2022-08-14T07:59:09;3.78;;;3.47;;
18023;SDS011;9137;50.960;3.118;2022-08-14T08:01:36;4.30;;;3.75;;
18023;SDS011;9137;50.960;3.118;2022-08-14T08:04:06;5.38;;;3.47;;
18023;SDS011;9137;50.960;3.118;2022-08-14T08:06:34;4.20;;;3.78;;
18023;SDS011;9137;50.960;3.118;2022-08-14T08:09:02;3.80;;;3.50;;
18023;SDS011;9137;50.960;3.118;2022-08-14T08:11:30;3.42;;;3.22;;
18023;SDS011;9137;50.960;3.118;2022-08-14T08:13:59;5.07;;;2.83;;
18023;SDS011;9137;50.960;3.118;2022-08-14T08:16:31;3.28;;;2.97;;
18023;SDS011;9137;50.960;3.118;2022-08-14T08:19:00;4.40;;;3.25;;
18023;SDS011;9137;50.960;3.118;2022-08-14T08:21:29;3.50;;;3.20;;
18023;SDS011;9137;50.960;3.118;2022-08-14T08:23:56;3.00;;;2.80;;
18023;SDS011;9137;50.960;3.118;2022-08-14T08:26:27;5.07;;;3.10;;
18023;SDS011;9137;50.960;3.118;2022-08-14T08:28:55;3.00;;;2.80;;
18023;SDS011;9137;50.960;3.118;2022-08-14T08:31:23;3.42;;;3.00;;
18023;SDS011;9137;50.960;3.118;2022-08-14T08:33:50;3.30;;;2.90;;
18023;SDS011;9137;50.960;3.118;2022-08-14T08:36:18;4.07;;;3.77;;
18023;SDS011;9137;50.960;3.118;2022-08-14T08:38:47;5.67;;;3.20;;
18023;SDS011;9137;50.960;3.118;2022-08-14T08:41:15;3.80;;;3.42;;
18023;SDS011;9137;50.960;3.118;2022-08-14T08:43:42;3.30;;;3.00;;
18023;SDS011;9137;50.960;3.118;2022-08-14T08:46:10;4.22;;;3.70;;
18023;SDS011;9137;50.960;3.118;2022-08-14T08:48:42;4.60;;;4.07;;
18023;SDS011;9137;50.960;3.118;2022-08-14T08:51:18;3.43;;;2.93;;
18023;SDS011;9137;50.960;3.118;2022-08-14T08:53:55;6.37;;;2.90;;
18023;SDS011;9137;50.960;3.118;2022-08-14T08:56:39;3.00;;;2.78;;
18023;SDS011;9137;50.960;3.118;2022-08-14T08:59:17;5.25;;;3.05;;
18023;SDS011;9137;50.960;3.118;2022-08-14T09:01:46;7.45;;;2.90;;
18023;SDS011;9137;50.960;3.118;2022-08-14T09:04:17;2.85;;;2.60;;
18023;SDS011;9137;50.960;3.118;2022-08-14T09:06:44;2.63;;;2.40;;
18023;SDS011;9137;50.960;3.118;2022-08-14T09:09:22;2.53;;;2.33;;
18023;SDS011;9137;50.960;3.118;2022-08-14T09:11:51;3.53;;;3.00;;
18023;SDS011;9137;50.960;3.118;2022-08-14T09:14:19;3.78;;;2.72;;
18023;SDS011;9137;50.960;3.118;2022-08-14T09:16:46;2.55;;;2.35;;
18023;SDS011;9137;50.960;3.118;2022-08-14T09:19:14;4.13;;;2.72;;
18023;SDS011;9137;50.960;3.118;2022-08-14T09:21:42;4.10;;;3.00;;
18023;SDS011;9137;50.960;3.118;2022-08-14T09:24:10;3.90;;;3.50;;
18023;SDS011;9137;50.960;3.118;2022-08-14T09:26:40;5.72;;;3.75;;
18023;SDS011;9137;50.960;3.118;2022-08-14T09:29:08;3.10;;;2.80;;
18023;SDS011;9137;50.960;3.118;2022-08-14T09:31:44;6.18;;;4.10;;
18023;SDS011;9137;50.960;3.118;2022-08-14T09:34:17;4.63;;;3.13;;
18023;SDS011;9137;50.960;3.118;2022-08-14T09:36:57;3.08;;;2.88;;
18023;SDS011;9137;50.960;3.118;2022-08-14T09:39:43;2.88;;;2.67;;
18023;SDS011;9137;50.960;3.118;2022-08-14T09:45:12;3.90;;;2.37;;
18023;SDS011;9137;50.960;3.118;2022-08-14T09:47:43;2.75;;;2.50;;
18023;SDS011;9137;50.960;3.118;2022-08-14T09:50:20;3.25;;;2.60;;
18023;SDS011;9137;50.960;3.118;2022-08-14T09:52:50;3.27;;;2.90;;
18023;SDS011;9137;50.960;3.118;2022-08-14T09:55:20;2.80;;;2.60;;
18023;SDS011;9137;50.960;3.118;2022-08-14T09:57:50;3.03;;;2.53;;
18023;SDS011;9137;50.960;3.118;2022-08-14T10:00:17;1.97;;;1.87;;
18023;SDS011;9137;50.960;3.118;2022-08-14T10:02:58;2.30;;;1.88;;
18023;SDS011;9137;50.960;3.118;2022-08-14T10:05:28;3.20;;;2.00;;
18023;SDS011;9137;50.960;3.118;2022-08-14T10:07:58;2.47;;;1.92;;
18023;SDS011;9137;50.960;3.118;2022-08-14T10:10:29;2.90;;;1.83;;
18023;SDS011;9137;50.960;3.118;2022-08-14T10:12:59;1.83;;;1.73;;
18023;SDS011;9137;50.960;3.118;2022-08-14T10:15:28;2.20;;;2.00;;
18023;SDS011;9137;50.960;3.118;2022-08-14T10:18:04;2.10;;;2.00;;
18023;SDS011;9137;50.960;3.118;2022-08-14T10:20:34;1.90;;;1.80;;
18023;SDS011;9137;50.960;3.118;2022-08-14T10:23:08;2.80;;;2.20;;
18023;SDS011;9137;50.960;3.118;2022-08-14T10:25:40;2.03;;;1.92;;
18023;SDS011;9137;50.960;3.118;2022-08-14T10:28:10;2.90;;;1.70;;
18023;SDS011;9137;50.960;3.118;2022-08-14T10:30:41;2.53;;;2.10;;
18023;SDS011;9137;50.960;3.118;2022-08-14T10:33:22;2.20;;;1.80;;
18023;SDS011;9137;50.960;3.118;2022-08-14T10:35:50;2.10;;;1.58;;
18023;SDS011;9137;50.960;3.118;2022-08-14T10:38:25;3.92;;;1.80;;
18023;SDS011;9137;50.960;3.118;2022-08-14T10:40:53;2.17;;;1.70;;
18023;SDS011;9137;50.960;3.118;2022-08-14T10:43:22;2.30;;;1.60;;
18023;SDS011;9137;50.960;3.118;2022-08-14T10:45:51;3.23;;;1.50;;
18023;SDS011;9137;50.960;3.118;2022-08-14T10:48:19;2.40;;;1.70;;
18023;SDS011;9137;50.960;3.118;2022-08-14T10:50:46;1.73;;;1.63;;
18023;SDS011;9137;50.960;3.118;2022-08-14T10:53:25;2.17;;;1.90;;
18023;SDS011;9137;50.960;3.118;2022-08-14T10:55:56;2.80;;;1.50;;
18023;SDS011;9137;50.960;3.118;2022-08-14T10:58:27;10.00;;;1.63;;
18023;SDS011;9137;50.960;3.118;2022-08-14T11:00:57;1.90;;;1.70;;
18023;SDS011;9137;50.960;3.118;2022-08-14T11:03:35;2.00;;;1.58;;
18023;SDS011;9137;50.960;3.118;2022-08-14T11:06:10;1.90;;;1.70;;
18023;SDS011;9137;50.960;3.118;2022-08-14T11:08:42;2.07;;;1.83;;
18023;SDS011;9137;50.960;3.118;2022-08-14T11:11:09;1.88;;;1.77;;
18023;SDS011;9137;50.960;3.118;2022-08-14T11:13:39;1.73;;;1.63;;
18023;SDS011;9137;50.960;3.118;2022-08-14T11:16:08;2.28;;;1.40;;
18023;SDS011;9137;50.960;3.118;2022-08-14T11:18:36;1.90;;;1.48;;
18023;SDS011;9137;50.960;3.118;2022-08-14T11:21:03;1.77;;;1.67;;
18023;SDS011;9137;50.960;3.118;2022-08-14T11:23:32;1.70;;;1.60;;
18023;SDS011;9137;50.960;3.118;2022-08-14T11:26:02;2.00;;;1.58;;
18023;SDS011;9137;50.960;3.118;2022-08-14T11:28:31;2.88;;;1.90;;
18023;SDS011;9137;50.960;3.118;2022-08-14T11:31:05;1.80;;;1.70;;
18023;SDS011;9137;50.960;3.118;2022-08-14T11:33:34;2.92;;;1.90;;
18023;SDS011;9137;50.960;3.118;2022-08-14T11:36:03;3.70;;;2.05;;
18023;SDS011;9137;50.960;3.118;2022-08-14T11:38:37;2.13;;;1.88;;
18023;SDS011;9137;50.960;3.118;2022-08-14T11:41:04;1.67;;;1.58;;
18023;SDS011;9137;50.960;3.118;2022-08-14T11:43:36;1.67;;;1.58;;
18023;SDS011;9137;50.960;3.118;2022-08-14T11:46:06;1.90;;;1.80;;
18023;SDS011;9137;50.960;3.118;2022-08-14T11:48:44;2.75;;;1.70;;
18023;SDS011;9137;50.960;3.118;2022-08-14T11:51:13;3.97;;;2.30;;
18023;SDS011;9137;50.960;3.118;2022-08-14T11:53:49;1.57;;;1.47;;
18023;SDS011;9137;50.960;3.118;2022-08-14T11:56:17;2.08;;;1.33;;
18023;SDS011;9137;50.960;3.118;2022-08-14T11:58:44;1.45;;;1.35;;
18023;SDS011;9137;50.960;3.118;2022-08-14T12:01:22;1.60;;;1.50;;
18023;SDS011;9137;50.960;3.118;2022-08-14T12:03:52;1.77;;;1.67;;
18023;SDS011;9137;50.960;3.118;2022-08-14T12:06:23;1.50;;;1.40;;
18023;SDS011;9137;50.960;3.118;2022-08-14T12:08:50;1.20;;;1.20;;
18023;SDS011;9137;50.960;3.118;2022-08-14T12:11:18;1.85;;;1.75;;
18023;SDS011;9137;50.960;3.118;2022-08-14T12:13:46;1.50;;;1.40;;
18023;SDS011;9137;50.960;3.118;2022-08-14T12:16:13;1.70;;;1.40;;
18023;SDS011;9137;50.960;3.118;2022-08-14T12:18:43;2.58;;;1.42;;
18023;SDS011;9137;50.960;3.118;2022-08-14T12:21:12;1.75;;;1.63;;
18023;SDS011;9137;50.960;3.118;2022-08-14T12:23:40;1.70;;;1.60;;
18023;SDS011;9137;50.960;3.118;2022-08-14T12:26:09;1.90;;;1.65;;
18023;SDS011;9137;50.960;3.118;2022-08-14T12:28:40;1.67;;;1.58;;
18023;SDS011;9137;50.960;3.118;2022-08-14T12:31:11;5.30;;;1.80;;
18023;SDS011;9137;50.960;3.118;2022-08-14T12:33:39;1.50;;;1.37;;
18023;SDS011;9137;50.960;3.118;2022-08-14T12:36:08;1.92;;;1.40;;
18023;SDS011;9137;50.960;3.118;2022-08-14T12:38:46;1.90;;;1.80;;
18023;SDS011;9137;50.960;3.118;2022-08-14T12:41:15;2.15;;;1.50;;
18023;SDS011;9137;50.960;3.118;2022-08-14T12:43:46;1.92;;;1.60;;
18023;SDS011;9137;50.960;3.118;2022-08-14T12:46:25;3.65;;;1.65;;
18023;SDS011;9137;50.960;3.118;2022-08-14T12:48:54;2.85;;;1.85;;
18023;SDS011;9137;50.960;3.118;2022-08-14T12:51:26;1.55;;;1.45;;
18023;SDS011;9137;50.960;3.118;2022-08-14T12:53:54;1.60;;;1.50;;
18023;SDS011;9137;50.960;3.118;2022-08-14T12:56:22;2.33;;;1.57;;
18023;SDS011;9137;50.960;3.118;2022-08-14T12:58:51;1.50;;;1.40;;
18023;SDS011;9137;50.960;3.118;2022-08-14T13:01:20;1.60;;;1.50;;
18023;SDS011;9137;50.960;3.118;2022-08-14T13:03:49;2.42;;;1.63;;
18023;SDS011;9137;50.960;3.118;2022-08-14T13:06:18;2.35;;;2.15;;
18023;SDS011;9137;50.960;3.118;2022-08-14T13:08:50;1.60;;;1.50;;
18023;SDS011;9137;50.960;3.118;2022-08-14T13:11:17;1.73;;;1.63;;
18023;SDS011;9137;50.960;3.118;2022-08-14T13:13:45;2.28;;;2.10;;
18023;SDS011;9137;50.960;3.118;2022-08-14T13:16:13;4.07;;;1.90;;
18023;SDS011;9137;50.960;3.118;2022-08-14T13:18:41;1.88;;;1.77;;
18023;SDS011;9137;50.960;3.118;2022-08-14T13:21:10;2.08;;;1.90;;
18023;SDS011;9137;50.960;3.118;2022-08-14T13:23:39;2.55;;;1.90;;
18023;SDS011;9137;50.960;3.118;2022-08-14T13:26:09;2.65;;;2.03;;
18023;SDS011;9137;50.960;3.118;2022-08-14T13:28:37;1.92;;;1.80;;
18023;SDS011;9137;50.960;3.118;2022-08-14T13:31:07;3.00;;;1.97;;
18023;SDS011;9137;50.960;3.118;2022-08-14T13:33:34;1.70;;;1.60;;
18023;SDS011;9137;50.960;3.118;2022-08-14T13:36:03;1.30;;;1.30;;
18023;SDS011;9137;50.960;3.118;2022-08-14T13:38:30;1.52;;;1.42;;
18023;SDS011;9137;50.960;3.118;2022-08-14T13:40:58;2.50;;;1.52;;
18023;SDS011;9137;50.960;3.118;2022-08-14T13:43:27;1.60;;;1.50;;
18023;SDS011;9137;50.960;3.118;2022-08-14T13:45:55;1.48;;;1.38;;
18023;SDS011;9137;50.960;3.118;2022-08-14T13:48:22;1.65;;;1.55;;
18023;SDS011;9137;50.960;3.118;2022-08-14T13:50:51;2.30;;;1.70;;
18023;SDS011;9137;50.960;3.118;2022-08-14T13:53:21;2.80;;;1.70;;
18023;SDS011;9137;50.960;3.118;2022-08-14T13:55:49;1.73;;;1.48;;
18023;SDS011;9137;50.960;3.118;2022-08-14T13:58:18;1.80;;;1.70;;
18023;SDS011;9137;50.960;3.118;2022-08-14T14:00:48;1.60;;;1.50;;
18023;SDS011;9137;50.960;3.118;2022-08-14T14:03:17;3.35;;;3.05;;
18023;SDS011;9137;50.960;3.118;2022-08-14T14:05:47;3.15;;;2.88;;
18023;SDS011;9137;50.960;3.118;2022-08-14T14:08:16;3.90;;;2.30;;
18023;SDS011;9137;50.960;3.118;2022-08-14T14:10:46;1.70;;;1.60;;
18023;SDS011;9137;50.960;3.118;2022-08-14T14:13:14;1.90;;;1.60;;
18023;SDS011;9137;50.960;3.118;2022-08-14T14:15:42;3.40;;;1.45;;
18023;SDS011;9137;50.960;3.118;2022-08-14T14:18:11;2.70;;;1.40;;
18023;SDS011;9137;50.960;3.118;2022-08-14T14:20:41;1.30;;;1.30;;
18023;SDS011;9137;50.960;3.118;2022-08-14T14:23:10;1.70;;;1.42;;
18023;SDS011;9137;50.960;3.118;2022-08-14T14:25:41;1.30;;;1.20;;
18023;SDS011;9137;50.960;3.118;2022-08-14T14:28:11;1.65;;;1.55;;
18023;SDS011;9137;50.960;3.118;2022-08-14T14:30:43;1.50;;;1.40;;
18023;SDS011;9137;50.960;3.118;2022-08-14T14:33:12;1.67;;;1.50;;
18023;SDS011;9137;50.960;3.118;2022-08-14T14:35:43;1.50;;;1.23;;
18023;SDS011;9137;50.960;3.118;2022-08-14T14:38:14;2.50;;;1.20;;
18023;SDS011;9137;50.960;3.118;2022-08-14T14:40:42;1.77;;;1.30;;
18023;SDS011;9137;50.960;3.118;2022-08-14T14:43:12;2.00;;;1.60;;
18023;SDS011;9137;50.960;3.118;2022-08-14T14:45:40;1.33;;;1.20;;
18023;SDS011;9137;50.960;3.118;2022-08-14T14:48:11;1.50;;;1.27;;
18023;SDS011;9137;50.960;3.118;2022-08-14T14:50:39;1.97;;;1.33;;
18023;SDS011;9137;50.960;3.118;2022-08-14T14:53:07;1.40;;;1.20;;
18023;SDS011;9137;50.960;3.118;2022-08-14T14:55:34;2.60;;;1.30;;
18023;SDS011;9137;50.960;3.118;2022-08-14T14:58:04;2.30;;;1.35;;
18023;SDS011;9137;50.960;3.118;2022-08-14T15:00:32;1.23;;;1.02;;
18023;SDS011;9137;50.960;3.118;2022-08-14T15:02:59;1.30;;;1.20;;
18023;SDS011;9137;50.960;3.118;2022-08-14T15:05:28;2.13;;;1.30;;
18023;SDS011;9137;50.960;3.118;2022-08-14T15:07:55;2.15;;;1.40;;
18023;SDS011;9137;50.960;3.118;2022-08-14T15:10:22;1.50;;;1.38;;
18023;SDS011;9137;50.960;3.118;2022-08-14T15:12:51;2.40;;;1.50;;
18023;SDS011;9137;50.960;3.118;2022-08-14T15:15:18;1.60;;;1.50;;
18023;SDS011;9137;50.960;3.118;2022-08-14T15:17:45;1.85;;;1.40;;